TimePDT,TemperatureF,Dew PointF,Humidity,Sea Level PressureIn,VisibilityMPH,Wind Direction,Wind SpeedMPH,Gust SpeedMPH,PrecipitationIn,Events,Conditions,WindDirDegrees,DateUTC
12:09 AM,33.8,28.4,81,29.79,1.8,North,13.8,24.2,0.00,Snow,Light Snow,350,2013-04-08 07:09:00
12:18 AM,33.8,30.2,87,29.80,1.2,NNW,13.8,26.5,0.00,Snow,Light Snow,340,2013-04-08 07:18:00
12:56 AM,33.1,28.0,82,29.88,2.0,North,12.7,32.2,0.02,Snow,Light Snow,350,2013-04-08 07:56:00
1:13 AM,33.8,28.4,81,29.84,1.5,NNW,13.8,31.1,0.01,Snow,Light Snow,340,2013-04-08 08:13:00
1:23 AM,33.8,28.4,81,29.84,1.2,NNW,11.5,28.8,0.01,Snow,Light Snow,340,2013-04-08 08:23:00
1:53 AM,33.8,28.4,81,29.84,1.8,NNW,12.7,28.8,0.02,Snow,Light Snow,340,2013-04-08 08:53:00
1:56 AM,33.1,28.0,82,29.90,2.0,NNW,10.4,27.6,0.02,Snow,Light Snow,340,2013-04-08 08:56:00
2:05 AM,33.8,28.4,81,29.84,3.0,NNW,11.5,23.0,0.00,Snow,Light Snow,340,2013-04-08 09:05:00
2:56 AM,33.1,26.1,75,29.93,9.0,NNW,16.1,31.1,0.00,,Overcast,340,2013-04-08 09:56:00
3:56 AM,33.1,25.0,72,29.94,10.0,NNW,15.0,32.2,N/A,,Overcast,340,2013-04-08 10:56:00
4:56 AM,32.0,25.0,75,29.98,10.0,NNW,12.7,27.6,N/A,,Overcast,330,2013-04-08 11:56:00
5:56 AM,32.0,24.1,73,30.03,10.0,NNW,8.1,19.6,N/A,,Overcast,340,2013-04-08 12:56:00
6:56 AM,32.0,26.1,79,30.07,10.0,Variable,6.9,-,0.00,,Overcast,0,2013-04-08 13:56:00
7:56 AM,34.0,25.0,70,30.12,10.0,North,8.1,-,0.00,Snow,Light Snow,350,2013-04-08 14:56:00
8:56 AM,34.0,25.0,70,30.14,9.0,NNW,10.4,20.7,0.00,Snow,Light Snow,340,2013-04-08 15:56:00
9:56 AM,37.0,26.1,65,30.14,10.0,NNW,9.2,23.0,0.00,,Partly Cloudy,340,2013-04-08 16:56:00
10:56 AM,39.9,26.1,58,30.14,10.0,WNW,16.1,23.0,N/A,,Clear,300,2013-04-08 17:56:00
11:56 AM,42.1,28.0,58,30.13,10.0,North,12.7,20.7,N/A,,Partly Cloudy,350,2013-04-08 18:56:00
12:56 PM,46.0,26.1,46,30.12,10.0,NNW,13.8,27.6,N/A,,Clear,340,2013-04-08 19:56:00
1:56 PM,46.9,24.1,41,30.11,10.0,NNW,16.1,26.5,N/A,,Clear,330,2013-04-08 20:56:00
2:56 PM,46.9,23.0,39,30.13,10.0,NNW,11.5,31.1,N/A,,Clear,340,2013-04-08 21:56:00
3:56 PM,48.0,24.1,39,30.12,10.0,North,16.1,31.1,N/A,,Clear,360,2013-04-08 22:56:00
4:56 PM,46.9,25.0,42,30.13,10.0,North,10.4,28.8,N/A,,Clear,350,2013-04-08 23:56:00
5:56 PM,46.0,25.0,44,30.15,10.0,North,10.4,24.2,N/A,,Clear,360,2013-04-09 00:56:00
6:56 PM,43.0,25.0,49,30.17,10.0,NNW,8.1,28.8,N/A,,Clear,340,2013-04-09 01:56:00
7:56 PM,41.0,26.1,55,30.18,10.0,NNW,10.4,26.5,N/A,,Clear,340,2013-04-09 02:56:00
8:56 PM,41.0,26.1,55,30.19,10.0,NNW,12.7,25.3,N/A,,Clear,340,2013-04-09 03:56:00
9:56 PM,39.9,27.0,60,30.20,10.0,NNW,11.5,27.6,N/A,,Clear,340,2013-04-09 04:56:00
10:56 PM,39.9,27.0,60,30.20,10.0,NNW,11.5,29.9,N/A,,Clear,330,2013-04-09 05:56:00
11:56 PM,39.0,27.0,62,30.21,10.0,NNW,11.5,25.3,N/A,,Clear,340,2013-04-09 06:56:00